CFG7KF EDDF-LGKR
Flight info
| Callsign | CFG7KF |
|---|---|
| Flight time | N/A |
| Altitude | 37000 |
| Route | CINDY8S/18 CINDY Z74 LAMPU DCT NOMBO Y161 MAH DCT VAVOR DCT RADIZ DCT NERRA DCT KOFER DCT RODON DCT LIMJA N732 PITAS |
| Aircraft | A321/M-SDE3FGHIRWY/LB1 |
Departure
| Time | 2026-05-01 14:42 |
|---|---|
| Airport | Frankfurt Main Airport (EDDF) |
Arrival
| Time | N/A |
|---|---|
| Airport | Corfu Ioannis Kapodistrias International Airport (LGKR) |
| Time | Latitude | Longitude | Altitude | Speed | Heading |
|---|---|---|---|---|---|
| 2026-05-01 13:54 | 50.04533 | 8.56586 | 356 ft | 0 kts | 115° |
| 2026-05-01 14:30 | 50.04537 | 8.56572 | 363 ft | 4 kts | 115° |
| 2026-05-01 14:31 | 50.04563 | 8.56498 | 358 ft | 4 kts | 127° |
| 2026-05-01 14:31 | 50.04581 | 8.56471 | 362 ft | 4 kts | 166° |
| 2026-05-01 14:31 | 50.04592 | 8.56469 | 360 ft | 0 kts | 205° |
| 2026-05-01 14:31 | 50.04575 | 8.56457 | 360 ft | 2 kts | 205° |
| 2026-05-01 14:32 | 50.04574 | 8.56456 | 359 ft | 0 kts | 205° |
| 2026-05-01 14:35 | 50.04570 | 8.56454 | 360 ft | 3 kts | 205° |
| 2026-05-01 14:36 | 50.04534 | 8.56422 | 360 ft | 10 kts | 223° |
| 2026-05-01 14:36 | 50.04500 | 8.56316 | 360 ft | 11 kts | 251° |
| 2026-05-01 14:36 | 50.04475 | 8.56212 | 359 ft | 10 kts | 249° |
| 2026-05-01 14:36 | 50.04447 | 8.56097 | 363 ft | 13 kts | 249° |
| 2026-05-01 14:37 | 50.04376 | 8.56039 | 362 ft | 13 kts | 168° |
| 2026-05-01 14:37 | 50.04323 | 8.56067 | 357 ft | 12 kts | 163° |
| 2026-05-01 14:37 | 50.04256 | 8.55997 | 361 ft | 14 kts | 247° |
| 2026-05-01 14:37 | 50.04208 | 8.55807 | 355 ft | 25 kts | 249° |
| 2026-05-01 14:38 | 50.04142 | 8.55534 | 355 ft | 27 kts | 249° |
| 2026-05-01 14:38 | 50.04077 | 8.55262 | 360 ft | 26 kts | 249° |
| 2026-05-01 14:38 | 50.04016 | 8.55004 | 356 ft | 25 kts | 249° |
| 2026-05-01 14:38 | 50.03954 | 8.54747 | 354 ft | 26 kts | 249° |
| 2026-05-01 14:39 | 50.03894 | 8.54497 | 355 ft | 17 kts | 249° |
| 2026-05-01 14:39 | 50.03850 | 8.54348 | 353 ft | 14 kts | 236° |
| 2026-05-01 14:39 | 50.03797 | 8.54209 | 356 ft | 17 kts | 248° |
| 2026-05-01 14:39 | 50.03748 | 8.54009 | 347 ft | 23 kts | 250° |
| 2026-05-01 14:40 | 50.03687 | 8.53751 | 351 ft | 27 kts | 249° |
| 2026-05-01 14:40 | 50.03620 | 8.53483 | 337 ft | 23 kts | 249° |
| 2026-05-01 14:40 | 50.03564 | 8.53249 | 338 ft | 23 kts | 249° |
| 2026-05-01 14:40 | 50.03509 | 8.53018 | 335 ft | 23 kts | 250° |
| 2026-05-01 14:41 | 50.03453 | 8.52808 | 333 ft | 17 kts | 247° |
| 2026-05-01 14:41 | 50.03418 | 8.52668 | 332 ft | 12 kts | 250° |
| 2026-05-01 14:41 | 50.03377 | 8.52597 | 335 ft | 9 kts | 193° |
| 2026-05-01 14:41 | 50.03254 | 8.52595 | 333 ft | 41 kts | 179° |
| 2026-05-01 14:42 | 50.02692 | 8.52601 | 334 ft | 116 kts | 179° |
| 2026-05-01 14:42 | 50.01691 | 8.52608 | 386 ft | 165 kts | 177° |
| 2026-05-01 14:42 | 50.00537 | 8.52618 | 1088 ft | 165 kts | 176° |
| 2026-05-01 14:42 | 49.99398 | 8.52628 | 1836 ft | 165 kts | 176° |
| 2026-05-01 14:43 | 49.98175 | 8.52643 | 2248 ft | 186 kts | 174° |
| 2026-05-01 14:43 | 49.96883 | 8.53114 | 2508 ft | 201 kts | 148° |
| 2026-05-01 14:43 | 49.95887 | 8.54722 | 2866 ft | 217 kts | 119° |
| 2026-05-01 14:43 | 49.95151 | 8.56789 | 3697 ft | 219 kts | 119° |
| 2026-05-01 14:44 | 49.94411 | 8.58864 | 4600 ft | 221 kts | 117° |
| 2026-05-01 14:44 | 49.93889 | 8.63906 | 5764 ft | 260 kts | 96° |
| 2026-05-01 14:44 | 49.93738 | 8.66752 | 6559 ft | 267 kts | 103° |
| 2026-05-01 14:45 | 49.93093 | 8.69451 | 7378 ft | 269 kts | 123° |
| 2026-05-01 14:45 | 49.90346 | 8.73354 | 9134 ft | 272 kts | 145° |
| 2026-05-01 14:45 | 49.88853 | 8.75191 | 10003 ft | 276 kts | 136° |
| 2026-05-01 14:46 | 49.87677 | 8.77564 | 10822 ft | 281 kts | 122° |
| 2026-05-01 14:46 | 49.85360 | 8.82982 | 11445 ft | 324 kts | 133° |
| 2026-05-01 14:46 | 49.83792 | 8.85586 | 12020 ft | 334 kts | 133° |
| 2026-05-01 14:47 | 49.82190 | 8.88226 | 12795 ft | 338 kts | 133° |